Time;durP1;ratioP1;P1;durP2;ratioP2;P2;SDS_P1;SDS_P2;PMS_P1;PMS_P2;Temp;Humidity;BMP_temperature;BMP_pressure;BME280_temperature;BME280_humidity;BME280_pressure;Samples;Min_cycle;Max_cycle;Signal;HPM_P1;HPM_P2
2022/08/06 00:00:52;;;;;;;5.30;1.13;;;19.20;92.00;;;;;;5062068;28;20539;-64
2022/08/06 00:03:18;;;;;;;3.70;1.20;;;19.10;92.00;;;;;;5048259;28;20249;-64
2022/08/06 00:05:44;;;;;;;2.87;1.23;;;19.10;92.10;;;;;;5053914;28;20219;-63
2022/08/06 00:08:10;;;;;;;3.67;1.50;;;19.10;92.00;;;;;;5071620;28;20184;-64
2022/08/06 00:10:35;;;;;;;1.97;1.00;;;19.10;91.80;;;;;;5071418;28;20634;-64
2022/08/06 00:13:01;;;;;;;2.50;1.17;;;19.10;92.20;;;;;;5071304;28;20177;-64
2022/08/06 00:15:27;;;;;;;2.10;1.10;;;19.00;92.00;;;;;;5071265;28;20238;-63
2022/08/06 00:17:53;;;;;;;4.20;1.13;;;19.00;92.20;;;;;;5053763;28;20545;-63
2022/08/06 00:20:19;;;;;;;3.30;1.20;;;19.00;92.00;;;;;;5071466;28;20419;-63
2022/08/06 00:22:44;;;;;;;3.67;1.40;;;19.00;92.00;;;;;;5046110;28;20650;-63
2022/08/06 00:25:10;;;;;;;3.00;1.00;;;19.00;91.90;;;;;;5071319;28;20180;-63
2022/08/06 00:27:37;;;;;;;4.73;1.20;;;19.00;91.60;;;;;;5071508;28;20188;-63
2022/08/06 00:30:05;;;;;;;2.67;1.00;;;19.00;92.00;;;;;;5071644;28;20181;-63
2022/08/06 00:32:31;;;;;;;3.47;1.40;;;19.00;92.20;;;;;;5052678;28;20926;-64
2022/08/06 00:34:56;;;;;;;7.23;1.30;;;19.00;92.40;;;;;;5053401;28;20462;-64
2022/08/06 00:37:22;;;;;;;2.97;0.83;;;19.00;92.20;;;;;;5071295;28;20185;-64
2022/08/06 00:39:48;;;;;;;2.40;1.23;;;19.00;92.30;;;;;;5053426;28;20345;-63
2022/08/06 00:42:14;;;;;;;3.20;1.00;;;19.00;91.80;;;;;;5068803;28;20247;-64
2022/08/06 00:44:40;;;;;;;3.30;0.90;;;19.00;92.20;;;;;;5060448;28;20177;-64
2022/08/06 00:47:05;;;;;;;3.10;1.33;;;19.00;91.90;;;;;;5070873;28;20895;-64
2022/08/06 00:49:31;;;;;;;1.80;1.00;;;18.90;92.30;;;;;;5070175;28;20182;-64
2022/08/06 00:51:57;;;;;;;3.97;1.17;;;19.00;91.80;;;;;;5036017;28;20186;-63
2022/08/06 00:54:22;;;;;;;2.30;1.00;;;18.90;92.20;;;;;;5045989;28;20209;-63
2022/08/06 00:56:48;;;;;;;2.40;1.23;;;18.90;92.20;;;;;;5058033;28;20669;-63
2022/08/06 00:59:14;;;;;;;6.33;1.43;;;18.90;92.30;;;;;;5071364;28;20533;-64
2022/08/06 01:01:40;;;;;;;3.53;0.97;;;18.90;92.20;;;;;;5071199;28;20176;-64
2022/08/06 01:04:05;;;;;;;6.10;1.73;;;18.90;91.80;;;;;;5074889;28;20233;-63
2022/08/06 01:06:31;;;;;;;2.57;1.40;;;18.80;92.00;;;;;;5074706;28;20183;-63
2022/08/06 01:08:57;;;;;;;1.87;1.00;;;18.80;91.70;;;;;;5075203;28;20177;-63
2022/08/06 01:11:23;;;;;;;2.83;1.17;;;18.80;92.00;;;;;;5074614;28;20693;-63
2022/08/06 01:13:49;;;;;;;3.33;1.37;;;18.80;92.30;;;;;;5057392;28;20189;-63
2022/08/06 01:16:23;;;;;;;3.87;1.57;;;18.80;92.00;;;;;;5074339;28;20231;-64
2022/08/06 01:19:24;;;;;;;2.00;1.00;;;18.80;91.80;;;;;;5074781;28;20791;-64
2022/08/06 01:21:56;;;;;;;4.20;1.37;;;18.80;91.70;;;;;;5074281;28;20853;-63
2022/08/06 01:24:34;;;;;;;2.17;0.83;;;18.70;92.00;;;;;;5073725;28;20454;-63
2022/08/06 01:26:59;;;;;;;3.77;1.20;;;18.70;92.10;;;;;;5074745;28;20418;-63
2022/08/06 01:29:29;;;;;;;1.57;0.70;;;18.70;92.10;;;;;;5074654;28;20416;-63
2022/08/06 01:32:01;;;;;;;2.93;1.10;;;18.60;92.10;;;;;;5055862;28;20189;-63
2022/08/06 01:34:29;;;;;;;1.83;0.93;;;18.60;92.20;;;;;;5074224;28;20422;-63
2022/08/06 01:37:13;;;;;;;2.70;1.10;;;18.60;92.00;;;;;;5074415;28;20754;-64
2022/08/06 01:39:40;;;;;;;2.33;1.10;;;18.60;92.50;;;;;;5074231;28;20745;-63
2022/08/06 01:42:09;;;;;;;2.50;1.00;;;18.60;92.10;;;;;;5055779;28;20416;-64
2022/08/06 01:44:40;;;;;;;1.83;0.97;;;18.50;92.30;;;;;;5062439;28;20431;-63
2022/08/06 01:47:08;;;;;;;1.70;0.80;;;18.50;91.90;;;;;;5052081;28;20427;-63
2022/08/06 01:49:37;;;;;;;3.50;1.37;;;18.50;92.20;;;;;;5052708;28;20462;-63
2022/08/06 01:52:05;;;;;;;3.43;0.83;;;18.50;92.20;;;;;;5069454;28;20415;-63
2022/08/06 01:54:37;;;;;;;2.00;1.17;;;18.50;92.20;;;;;;5066174;28;20432;-64
2022/08/06 01:57:04;;;;;;;2.03;1.00;;;18.50;92.10;;;;;;5060560;28;20453;-64
2022/08/06 01:59:36;;;;;;;6.53;1.30;;;18.50;91.80;;;;;;5074119;28;20411;-64
2022/08/06 02:02:05;;;;;;;2.00;1.10;;;18.50;92.20;;;;;;5072715;28;20915;-63
2022/08/06 02:04:37;;;;;;;1.60;0.90;;;18.50;91.60;;;;;;5073589;28;20549;-63
2022/08/06 02:07:06;;;;;;;2.23;1.10;;;18.50;91.90;;;;;;5073671;28;20407;-63
2022/08/06 02:09:35;;;;;;;2.50;1.13;;;18.40;91.80;;;;;;5073745;28;20438;-63
2022/08/06 02:12:06;;;;;;;1.70;0.80;;;18.40;91.90;;;;;;5073042;28;20411;-64
2022/08/06 02:14:36;;;;;;;1.77;0.90;;;18.40;92.00;;;;;;5073646;28;20438;-63
2022/08/06 02:17:03;;;;;;;1.83;0.80;;;18.30;92.10;;;;;;5073089;28;20533;-63
2022/08/06 02:19:32;;;;;;;3.30;0.80;;;18.30;92.00;;;;;;5073441;28;20928;-63
2022/08/06 02:22:00;;;;;;;2.83;1.03;;;18.30;92.00;;;;;;5073028;28;20422;-63
2022/08/06 02:24:28;;;;;;;5.20;1.67;;;18.30;91.30;;;;;;5072510;28;20415;-63
2022/08/06 02:26:55;;;;;;;4.17;1.20;;;18.30;92.00;;;;;;5073338;28;20414;-64
2022/08/06 02:29:23;;;;;;;2.17;1.10;;;18.30;91.60;;;;;;5073327;28;20899;-63
2022/08/06 02:31:49;;;;;;;2.57;1.00;;;18.20;92.10;;;;;;5053081;28;20428;-63
2022/08/06 02:34:15;;;;;;;1.63;0.77;;;18.30;91.80;;;;;;5062996;28;20460;-63
2022/08/06 02:36:49;;;;;;;4.97;1.40;;;18.20;92.00;;;;;;5053450;28;20411;-63
2022/08/06 02:39:27;;;;;;;2.17;0.77;;;18.20;92.00;;;;;;5037437;28;20182;-63
2022/08/06 02:41:53;;;;;;;3.27;1.00;;;18.20;92.20;;;;;;5032616;28;20539;-63
2022/08/06 02:44:57;;;;;;;5.10;1.20;;;18.20;92.00;;;;;;5041496;28;20911;-63
2022/08/06 02:47:22;;;;;;;2.17;1.00;;;18.20;91.90;;;;;;5072649;28;20184;-64
2022/08/06 02:49:52;;;;;;;4.90;1.00;;;18.20;92.20;;;;;;5071633;28;20420;-63
2022/08/06 02:52:26;;;;;;;2.50;0.70;;;18.20;92.20;;;;;;5054347;28;20189;-63
2022/08/06 02:55:05;;;;;;;2.10;1.07;;;18.10;92.40;;;;;;5058331;28;20411;-63
2022/08/06 02:57:38;;;;;;;1.93;0.80;;;18.10;92.50;;;;;;5052174;28;20465;-63
2022/08/06 03:00:08;;;;;;;1.67;0.77;;;18.10;92.40;;;;;;5072683;28;20423;-63
2022/08/06 03:02:36;;;;;;;2.67;1.17;;;18.10;92.60;;;;;;5071905;28;20458;-63
2022/08/06 03:05:05;;;;;;;3.30;1.20;;;18.00;92.10;;;;;;5072517;28;20511;-63
2022/08/06 03:07:33;;;;;;;6.90;1.43;;;18.00;92.40;;;;;;5072783;28;20408;-63
2022/08/06 03:10:00;;;;;;;3.10;1.40;;;18.00;92.70;;;;;;5072712;28;20506;-63
2022/08/06 03:12:27;;;;;;;1.70;0.90;;;17.90;92.70;;;;;;5072128;28;20744;-63
2022/08/06 03:14:54;;;;;;;4.00;1.50;;;17.90;92.90;;;;;;5072523;28;20439;-63
2022/08/06 03:17:21;;;;;;;4.07;0.80;;;17.90;92.80;;;;;;5054274;28;20430;-63
2022/08/06 03:19:49;;;;;;;2.03;1.00;;;17.90;92.70;;;;;;5069863;28;20422;-64
2022/08/06 03:22:16;;;;;;;2.50;1.23;;;17.90;92.60;;;;;;5052028;28;20427;-63
2022/08/06 03:24:43;;;;;;;2.40;1.13;;;17.90;93.30;;;;;;5069231;28;20416;-64
2022/08/06 03:27:10;;;;;;;3.00;1.17;;;17.80;93.20;;;;;;5072074;28;20419;-63
2022/08/06 03:29:38;;;;;;;2.07;1.00;;;17.80;93.30;;;;;;5072150;28;20415;-63
2022/08/06 03:32:06;;;;;;;2.43;1.30;;;17.80;93.00;;;;;;5071193;28;20956;-63
2022/08/06 03:34:33;;;;;;;2.80;1.20;;;17.80;93.10;;;;;;5054060;28;20419;-63
2022/08/06 03:37:01;;;;;;;3.50;1.07;;;17.80;93.30;;;;;;5072246;28;20443;-63
2022/08/06 03:39:28;;;;;;;2.00;0.90;;;17.80;93.10;;;;;;5072147;28;20416;-63
2022/08/06 03:41:55;;;;;;;2.53;1.00;;;17.80;93.30;;;;;;5071330;28;20419;-64
2022/08/06 03:44:21;;;;;;;5.73;1.40;;;17.70;93.40;;;;;;5058344;28;20513;-63
2022/08/06 03:46:53;;;;;;;3.30;1.00;;;17.70;93.40;;;;;;5071602;28;21066;-63
2022/08/06 03:49:25;;;;;;;2.37;1.10;;;17.70;93.40;;;;;;5059282;28;20224;-64
2022/08/06 03:51:54;;;;;;;5.60;1.70;;;17.70;93.60;;;;;;5065269;28;20419;-63
2022/08/06 03:54:28;;;;;;;3.97;1.50;;;17.70;93.90;;;;;;5064065;28;20418;-64
2022/08/06 03:56:56;;;;;;;12.10;1.60;;;17.60;93.50;;;;;;5067773;28;20424;-64
2022/08/06 03:59:25;;;;;;;5.30;1.17;;;17.60;93.70;;;;;;5071870;28;20502;-64
2022/08/06 04:01:51;;;;;;;2.03;1.10;;;17.60;94.00;;;;;;5070863;28;20431;-64
2022/08/06 04:04:19;;;;;;;2.73;1.30;;;17.50;93.60;;;;;;5071501;28;20486;-64
2022/08/06 04:06:46;;;;;;;4.50;1.20;;;17.50;94.00;;;;;;5071571;28;20423;-65
2022/08/06 04:09:12;;;;;;;2.40;1.30;;;17.50;93.70;;;;;;5071786;28;20511;-63
2022/08/06 04:11:38;;;;;;;3.90;1.23;;;17.50;93.70;;;;;;5055575;28;20777;-64
2022/08/06 04:14:05;;;;;;;4.37;1.30;;;17.50;94.00;;;;;;5071730;28;20506;-64
2022/08/06 04:16:31;;;;;;;2.60;1.10;;;17.50;94.30;;;;;;5071180;28;20239;-64
2022/08/06 04:18:58;;;;;;;2.60;1.20;;;17.50;93.90;;;;;;5071449;28;20779;-63
2022/08/06 04:21:24;;;;;;;3.83;2.07;;;17.40;94.10;;;;;;5071321;28;20510;-64
2022/08/06 04:23:51;;;;;;;1.73;0.90;;;17.40;94.20;;;;;;5070374;28;20451;-63
2022/08/06 04:26:22;;;;;;;2.90;1.30;;;17.40;94.30;;;;;;5071766;28;20465;-64
2022/08/06 04:28:52;;;;;;;4.43;1.10;;;17.40;94.30;;;;;;5071877;28;20407;-64
2022/08/06 04:31:20;;;;;;;2.30;1.10;;;17.40;94.50;;;;;;5070774;28;20464;-63
2022/08/06 04:33:47;;;;;;;3.43;1.20;;;17.40;94.40;;;;;;5071295;28;20561;-64
2022/08/06 04:36:13;;;;;;;3.00;1.07;;;17.40;94.40;;;;;;5071728;28;20419;-64
2022/08/06 04:38:39;;;;;;;2.57;1.30;;;17.40;94.50;;;;;;5075598;28;20420;-63
2022/08/06 04:41:06;;;;;;;2.10;0.93;;;17.40;94.70;;;;;;5061625;28;20454;-64
2022/08/06 04:43:32;;;;;;;3.10;1.30;;;17.40;94.30;;;;;;5062496;28;20552;-64
2022/08/06 04:45:58;;;;;;;5.77;1.30;;;17.40;94.20;;;;;;5060798;28;20415;-64
2022/08/06 04:48:24;;;;;;;3.67;1.20;;;17.40;94.60;;;;;;5060960;28;20511;-64
2022/08/06 04:50:50;;;;;;;2.50;1.00;;;17.30;94.50;;;;;;5074358;28;20418;-63
2022/08/06 04:53:18;;;;;;;2.50;1.00;;;17.30;94.70;;;;;;5067756;28;20420;-64
2022/08/06 04:55:45;;;;;;;2.53;0.90;;;17.30;94.80;;;;;;5074936;28;20179;-64
2022/08/06 04:58:14;;;;;;;3.20;1.57;;;17.30;95.10;;;;;;5070994;28;20521;-64
2022/08/06 05:00:43;;;;;;;6.40;1.67;;;17.30;94.80;;;;;;5057753;28;20465;-64
2022/08/06 05:03:09;;;;;;;3.57;1.57;;;17.30;94.70;;;;;;5068076;28;20545;-64
2022/08/06 05:05:39;;;;;;;5.33;1.40;;;17.40;94.60;;;;;;5074525;28;20510;-64
2022/08/06 05:08:06;;;;;;;2.23;1.17;;;17.30;94.90;;;;;;5074480;28;20637;-64
2022/08/06 05:10:53;;;;;;;5.27;1.20;;;17.40;94.90;;;;;;5074508;28;20798;-64
2022/08/06 05:13:22;;;;;;;1.80;0.90;;;17.40;95.00;;;;;;5060566;28;20919;-64
2022/08/06 05:15:53;;;;;;;3.20;1.30;;;17.50;95.20;;;;;;5052250;28;20443;-63
2022/08/06 05:18:30;;;;;;;3.80;1.20;;;17.50;94.90;;;;;;5053020;28;20416;-63
2022/08/06 05:20:58;;;;;;;4.03;1.27;;;17.50;94.70;;;;;;5067138;28;20418;-64
2022/08/06 05:23:36;;;;;;;2.60;1.50;;;17.50;94.80;;;;;;5072543;28;20478;-64
2022/08/06 05:26:03;;;;;;;1.97;0.97;;;17.50;94.70;;;;;;5061066;28;20430;-64
2022/08/06 05:28:30;;;;;;;4.90;1.20;;;17.60;94.50;;;;;;5074342;28;20480;-64
2022/08/06 05:30:55;;;;;;;3.00;1.17;;;17.50;94.40;;;;;;5071726;28;20439;-64
2022/08/06 05:33:30;;;;;;;2.43;1.40;;;17.50;94.60;;;;;;5062943;28;20442;-64
2022/08/06 05:35:57;;;;;;;2.40;1.20;;;17.50;94.90;;;;;;5074107;28;20234;-63
2022/08/06 05:38:23;;;;;;;8.57;1.10;;;17.50;95.00;;;;;;5064363;28;20413;-63
2022/08/06 05:40:49;;;;;;;1.97;0.70;;;17.50;94.90;;;;;;5070555;28;20420;-64
2022/08/06 05:43:15;;;;;;;1.97;0.80;;;17.60;94.80;;;;;;5063391;28;20198;-63
2022/08/06 05:45:43;;;;;;;4.33;1.50;;;17.60;94.40;;;;;;5070281;28;20419;-63
2022/08/06 05:48:11;;;;;;;5.87;1.47;;;17.60;94.60;;;;;;5071944;28;20174;-64
2022/08/06 05:50:47;;;;;;;2.97;1.43;;;17.60;94.50;;;;;;5049070;28;20447;-64
2022/08/06 05:53:20;;;;;;;1.93;1.00;;;17.60;94.40;;;;;;5059037;28;20495;-64
2022/08/06 05:55:57;;;;;;;2.40;1.30;;;17.60;94.60;;;;;;5072649;28;20419;-63
2022/08/06 05:58:52;;;;;;;1.80;0.90;;;17.70;95.00;;;;;;5069549;28;20430;-64
2022/08/06 06:01:18;;;;;;;6.80;1.43;;;17.70;95.10;;;;;;5061159;28;20440;-64
2022/08/06 06:03:45;;;;;;;2.67;1.30;;;17.80;94.80;;;;;;5071613;28;20451;-63
2022/08/06 06:06:12;;;;;;;9.33;1.77;;;17.80;94.60;;;;;;5073782;28;20458;-64
2022/08/06 06:08:38;;;;;;;2.20;1.10;;;17.90;94.30;;;;;;5073691;28;20892;-63
2022/08/06 06:11:07;;;;;;;2.90;1.20;;;17.80;94.70;;;;;;5062141;28;20416;-63
2022/08/06 06:13:34;;;;;;;10.07;1.53;;;17.90;94.60;;;;;;5072188;28;20765;-64
2022/08/06 06:16:21;;;;;;;1.70;0.80;;;18.00;94.60;;;;;;5072814;28;20497;-64
2022/08/06 06:18:52;;;;;;;1.97;1.13;;;18.00;94.20;;;;;;5049583;28;20411;-63
2022/08/06 06:21:46;;;;;;;3.20;1.10;;;18.00;94.30;;;;;;5057518;28;20466;-63
2022/08/06 06:24:21;;;;;;;4.80;1.30;;;18.00;94.60;;;;;;5063889;28;20458;-63
2022/08/06 06:27:06;;;;;;;2.70;1.50;;;17.90;94.40;;;;;;5073458;28;20738;-63
2022/08/06 06:29:50;;;;;;;3.90;1.40;;;17.90;94.50;;;;;;5067411;28;20417;-63
2022/08/06 06:32:49;;;;;;;3.73;1.27;;;17.90;94.60;;;;;;5032922;28;20405;-63
2022/08/06 06:35:41;;;;;;;1.90;0.97;;;18.00;94.70;;;;;;5043068;28;20466;-64
2022/08/06 06:38:31;;;;;;;2.17;1.17;;;17.90;94.60;;;;;;5053511;28;20787;-63
2022/08/06 06:41:14;;;;;;;4.00;1.30;;;18.00;94.70;;;;;;5050049;28;20401;-64
2022/08/06 06:43:51;;;;;;;1.90;1.00;;;18.20;94.30;;;;;;5029521;28;20609;-64
2022/08/06 06:46:24;;;;;;;2.13;0.90;;;18.30;94.20;;;;;;5061823;28;20415;-64
2022/08/06 06:48:54;;;;;;;4.50;1.23;;;18.40;94.10;;;;;;5072407;28;20964;-64
2022/08/06 06:51:41;;;;;;;1.93;1.03;;;18.50;94.40;;;;;;5072524;28;20420;-64
2022/08/06 06:54:12;;;;;;;2.43;1.47;;;18.50;94.20;;;;;;5065178;28;20411;-64
2022/08/06 06:56:47;;;;;;;2.50;0.90;;;18.70;93.70;;;;;;5068764;28;20951;-64
2022/08/06 06:59:18;;;;;;;1.60;0.80;;;18.90;93.40;;;;;;5048475;28;20412;-64
2022/08/06 07:01:48;;;;;;;4.07;1.67;;;18.90;93.30;;;;;;5071782;28;20419;-64
2022/08/06 07:04:16;;;;;;;6.70;1.13;;;19.10;93.30;;;;;;5072465;28;20454;-64
2022/08/06 07:06:46;;;;;;;3.67;1.53;;;19.30;92.90;;;;;;5058910;28;20408;-64
2022/08/06 07:09:18;;;;;;;10.97;1.97;;;19.60;92.00;;;;;;5053318;28;20409;-64
2022/08/06 07:11:44;;;;;;;2.20;1.40;;;19.60;91.80;;;;;;5031984;28;20467;-64
2022/08/06 07:14:11;;;;;;;3.43;1.10;;;19.30;92.40;;;;;;5032839;28;20475;-64
2022/08/06 07:16:38;;;;;;;2.27;1.13;;;19.50;92.30;;;;;;5031945;28;20453;-64
2022/08/06 07:19:07;;;;;;;2.67;1.40;;;19.70;91.90;;;;;;5036919;28;20420;-63
2022/08/06 07:21:33;;;;;;;1.90;1.10;;;19.60;91.80;;;;;;5058981;28;20426;-64
2022/08/06 07:24:00;;;;;;;3.50;1.00;;;19.60;91.80;;;;;;5070942;28;20465;-65
2022/08/06 07:26:29;;;;;;;1.90;1.10;;;19.60;92.50;;;;;;5072143;28;20415;-65
2022/08/06 07:28:56;;;;;;;2.93;1.40;;;19.60;92.00;;;;;;5061345;28;20511;-65
2022/08/06 07:31:26;;;;;;;2.97;1.10;;;19.50;92.30;;;;;;5056300;28;20812;-65
2022/08/06 07:33:52;;;;;;;3.53;1.30;;;19.40;92.30;;;;;;5072720;28;20502;-65
2022/08/06 07:36:23;;;;;;;2.50;1.30;;;19.30;92.20;;;;;;5072167;28;20444;-65
2022/08/06 07:38:52;;;;;;;2.90;1.10;;;19.60;92.30;;;;;;5072605;28;20416;-64
2022/08/06 07:41:20;;;;;;;4.40;1.60;;;19.90;91.80;;;;;;5065104;28;20432;-64
2022/08/06 07:43:53;;;;;;;7.27;1.20;;;19.80;91.90;;;;;;5053521;28;20916;-64
2022/08/06 07:46:26;;;;;;;1.83;0.90;;;20.20;91.80;;;;;;5071816;28;20442;-64
2022/08/06 07:48:57;;;;;;;7.90;1.97;;;21.00;90.80;;;;;;5071065;28;20439;-64
2022/08/06 07:51:27;;;;;;;2.50;1.23;;;22.00;87.50;;;;;;5042905;28;20424;-65
2022/08/06 07:53:54;;;;;;;2.53;1.20;;;22.70;86.10;;;;;;5055796;28;20407;-64
2022/08/06 07:56:21;;;;;;;1.90;0.90;;;23.00;83.60;;;;;;5060491;28;20981;-64
2022/08/06 07:58:48;;;;;;;3.37;1.53;;;23.40;82.70;;;;;;5070282;28;20417;-64
2022/08/06 08:01:14;;;;;;;3.27;1.20;;;23.30;83.30;;;;;;5070939;28;20438;-64
2022/08/06 08:06:27;;;;;;;2.40;1.10;;;24.40;80.00;;;;;;5070396;28;20196;-64
2022/08/06 08:08:53;;;;;;;4.83;1.83;;;24.40;80.10;;;;;;5051869;28;20420;-64
2022/08/06 08:11:20;;;;;;;4.90;1.57;;;24.60;78.20;;;;;;5065322;28;20541;-64
2022/08/06 08:13:45;;;;;;;2.67;1.10;;;24.40;78.80;;;;;;5071919;28;20180;-64
2022/08/06 08:16:14;;;;;;;2.63;1.30;;;24.30;79.10;;;;;;5071112;28;20449;-64
2022/08/06 08:18:41;;;;;;;2.67;1.50;;;24.00;79.20;;;;;;5063317;28;20233;-64
2022/08/06 08:21:09;;;;;;;2.33;1.10;;;23.70;78.80;;;;;;5065615;28;20491;-64
2022/08/06 08:23:37;;;;;;;4.07;1.67;;;23.50;78.30;;;;;;5052895;28;20595;-64
2022/08/06 08:26:03;;;;;;;8.30;1.70;;;23.30;80.00;;;;;;5071400;28;20419;-64
2022/08/06 08:28:30;;;;;;;2.37;1.17;;;23.40;78.90;;;;;;5062655;28;20422;-65
2022/08/06 08:31:01;;;;;;;3.17;1.37;;;23.70;80.10;;;;;;5051507;28;20260;-64
2022/08/06 08:33:28;;;;;;;3.30;1.33;;;23.50;79.20;;;;;;5071478;28;20479;-64
2022/08/06 08:35:54;;;;;;;2.83;1.40;;;23.50;79.00;;;;;;5071091;28;20898;-64
2022/08/06 08:38:19;;;;;;;2.73;1.13;;;23.10;82.20;;;;;;5071687;28;20434;-64
2022/08/06 08:40:47;;;;;;;2.70;1.30;;;22.80;81.40;;;;;;5071215;28;20199;-65
2022/08/06 08:43:21;;;;;;;2.30;1.27;;;22.70;81.60;;;;;;5043251;28;20201;-65
2022/08/06 08:45:50;;;;;;;2.43;1.20;;;22.50;81.50;;;;;;5068625;28;20415;-64
2022/08/06 08:48:20;;;;;;;7.83;1.90;;;22.20;80.90;;;;;;5070044;28;20418;-64
2022/08/06 08:50:46;;;;;;;1.80;1.00;;;21.70;82.70;;;;;;5070827;28;20418;-64
2022/08/06 08:53:14;;;;;;;5.47;1.43;;;22.20;83.00;;;;;;5064334;28;20415;-64
2022/08/06 08:55:41;;;;;;;3.20;1.33;;;21.80;83.20;;;;;;5064665;28;20412;-64
2022/08/06 08:58:07;;;;;;;3.07;1.30;;;21.60;84.30;;;;;;5063864;28;20430;-64
2022/08/06 09:00:33;;;;;;;2.20;0.93;;;21.40;83.50;;;;;;5070850;28;20427;-64
2022/08/06 09:03:02;;;;;;;2.63;1.07;;;21.20;85.80;;;;;;5070894;28;20462;-64
2022/08/06 09:05:29;;;;;;;4.57;1.97;;;21.50;85.00;;;;;;5071151;28;20430;-66
2022/08/06 09:07:56;;;;;;;14.03;1.70;;;21.60;83.90;;;;;;5071694;28;20923;-65
2022/08/06 09:10:22;;;;;;;4.17;1.40;;;21.40;83.80;;;;;;5039699;28;20785;-65
2022/08/06 09:12:48;;;;;;;2.17;1.00;;;21.30;84.70;;;;;;5070598;28;20426;-68
2022/08/06 09:15:16;;;;;;;3.73;1.20;;;21.20;85.20;;;;;;5052903;28;20449;-66
2022/08/06 09:17:42;;;;;;;2.60;1.20;;;21.00;85.40;;;;;;5053867;28;20200;-65
2022/08/06 09:20:08;;;;;;;3.37;1.30;;;20.80;85.00;;;;;;5031143;28;20432;-66
2022/08/06 09:22:34;;;;;;;3.07;1.80;;;20.80;85.60;;;;;;5030664;28;20198;-64
2022/08/06 09:25:00;;;;;;;3.03;1.40;;;20.80;85.20;;;;;;5035071;28;20504;-64
2022/08/06 09:27:33;;;;;;;2.67;1.47;;;21.00;86.00;;;;;;5034596;28;20265;-64
2022/08/06 09:30:03;;;;;;;2.30;1.20;;;21.20;86.20;;;;;;5035075;28;20413;-64
2022/08/06 09:32:43;;;;;;;2.20;1.27;;;22.00;84.50;;;;;;5038549;28;20423;-64
2022/08/06 09:35:19;;;;;;;2.10;1.20;;;22.80;81.60;;;;;;5043958;28;20416;-64
2022/08/06 09:37:45;;;;;;;2.50;1.37;;;23.80;78.10;;;;;;5034594;28;20515;-64
2022/08/06 09:40:16;;;;;;;4.47;1.30;;;24.00;77.60;;;;;;5034533;28;20871;-64
2022/08/06 09:42:48;;;;;;;5.93;1.63;;;24.50;75.40;;;;;;5043162;28;20554;-64
2022/08/06 09:45:16;;;;;;;2.70;1.20;;;24.20;74.40;;;;;;5059082;28;20933;-64
2022/08/06 09:47:43;;;;;;;3.40;1.30;;;23.60;74.80;;;;;;5047181;28;20418;-64
2022/08/06 09:50:09;;;;;;;2.97;1.17;;;23.20;76.10;;;;;;5070888;28;20433;-64
2022/08/06 09:52:35;;;;;;;5.40;1.97;;;22.90;77.60;;;;;;5056877;28;20439;-64
2022/08/06 09:55:01;;;;;;;2.33;1.33;;;22.60;78.20;;;;;;5067654;28;20697;-64
2022/08/06 09:57:41;;;;;;;2.37;1.00;;;22.20;79.80;;;;;;5051169;28;20184;-64
2022/08/06 10:00:08;;;;;;;2.93;1.63;;;22.10;80.70;;;;;;5057810;28;20506;-63
2022/08/06 10:02:34;;;;;;;2.93;1.53;;;22.00;79.80;;;;;;5073021;28;20463;-64
2022/08/06 10:05:11;;;;;;;7.70;1.43;;;21.90;80.00;;;;;;5073757;28;20761;-63
2022/08/06 10:07:37;;;;;;;2.80;1.40;;;21.90;80.60;;;;;;5073963;28;20418;-64
2022/08/06 10:10:04;;;;;;;3.13;1.20;;;22.10;79.60;;;;;;5073725;28;20528;-63
2022/08/06 10:12:30;;;;;;;2.43;1.30;;;22.30;79.20;;;;;;5066308;28;20427;-64
2022/08/06 10:14:56;;;;;;;3.83;1.20;;;22.40;78.40;;;;;;5070412;28;20435;-64
2022/08/06 10:17:23;;;;;;;5.93;1.63;;;22.40;77.20;;;;;;5072828;28;20443;-63
2022/08/06 10:20:05;;;;;;;3.37;1.67;;;22.20;79.00;;;;;;5073275;28;20465;-64
